Tom Frazier — WDD4376 — position and weather

sailwx.info

Track history (hours):
 
Tides and Currents Weather Stations Pressure Air Temp Water Temp Dewpoint Dewpoint Depression Visibility Wind Speed Wind Dir Waves Ship Positions

Tom Frazier

Owner: American Commercial Lines LLC, Jeffersonville, IN. More information available from US FCC via Universal Licensing System and Coast Guard Vessel Documentation Center.

Last reported at 2015-Jul-01 14:23 UTC. Time now 2015-Jul-04 11:50 UTC.
Position N 38°56' W 084°52'.

Length 48 m; draft 2.9 m.

MMSI: 367143910.

Date/timePositionNaut miles runAvg speedWind from/ knotsBaromVisibWave heightAir tempDewpointWater temp
2015-Jul-01 14:23N 38°56' W 084°52'8 7.3
2015-Jul-01 13:17N 39°04' W 084°53'2 2.2
2015-Jul-01 12:28N 39°05' W 084°51'0 0.0
2015-Jul-01 11:32N 39°05' W 084°51'0 0.0
2015-Jul-01 10:32N 39°05' W 084°51'2 1.8
2015-Jul-01 09:32N 39°06' W 084°49'6 5.7
2015-Jul-01 08:32N 39°07' W 084°42'4 4.0
2015-Jul-01 07:32N 39°05' W 084°38'0 0.1
2015-Jul-01 06:33N 39°05' W 084°38'0 0.0
2015-Jul-01 05:33N 39°05' W 084°38'0 0.0
2015-Jul-01 04:32N 39°05' W 084°38'0 0.0
2015-Jul-01 03:33N 39°05' W 084°38'0 0.0
2015-Jul-01 02:32N 39°05' W 084°38'0 0.1
2015-Jul-01 01:32N 39°05' W 084°38'1 0.7
2015-Jul-01 00:33N 39°05' W 084°39'4 4.0
2015-Jun-30 23:33N 39°08' W 084°43'3 3.2
2015-Jun-30 22:33N 39°07' W 084°47'9 2.9
2015-Jun-30 19:21N 38°58' W 084°50'  
Track history (hours):
 
Tides and Currents Weather Stations Pressure Air Temp Water Temp Dewpoint Dewpoint Depression Visibility Wind Speed Wind Dir Waves Ship Positions

Tom Frazier

Owner: American Commercial Lines LLC, Jeffersonville, IN. More information available from US FCC via Universal Licensing System and Coast Guard Vessel Documentation Center.

Last reported at 2015-Jul-01 14:23 UTC. Time now 2015-Jul-04 11:50 UTC.
Position N 38°56' W 084°52'.

Length 48 m; draft 2.9 m.

MMSI: 367143910.

Date/timePositionNaut miles runAvg speedWind from/ knotsBaromVisibWave heightAir tempDewpointWater temp
2015-Jul-01 14:23N 38°56' W 084°52'8 7.3
2015-Jul-01 13:17N 39°04' W 084°53'2 2.2
2015-Jul-01 12:28N 39°05' W 084°51'0 0.0
2015-Jul-01 11:32N 39°05' W 084°51'0 0.0
2015-Jul-01 10:32N 39°05' W 084°51'2 1.8
2015-Jul-01 09:32N 39°06' W 084°49'6 5.7
2015-Jul-01 08:32N 39°07' W 084°42'4 4.0
2015-Jul-01 07:32N 39°05' W 084°38'0 0.1
2015-Jul-01 06:33N 39°05' W 084°38'0 0.0
2015-Jul-01 05:33N 39°05' W 084°38'0 0.0
2015-Jul-01 04:32N 39°05' W 084°38'0 0.0
2015-Jul-01 03:33N 39°05' W 084°38'0 0.0
2015-Jul-01 02:32N 39°05' W 084°38'0 0.1
2015-Jul-01 01:32N 39°05' W 084°38'1 0.7
2015-Jul-01 00:33N 39°05' W 084°39'4 4.0
2015-Jun-30 23:33N 39°08' W 084°43'3 3.2
2015-Jun-30 22:33N 39°07' W 084°47'9 2.9
2015-Jun-30 19:21N 38°58' W 084°50'  

Dump ship's entire track history